createdAt,value
2022-11-20T00:00:03.942Z,2.92
2022-11-20T00:01:04.316Z,2.90
2022-11-20T00:02:04.541Z,2.90
2022-11-20T00:03:04.750Z,2.95
2022-11-20T00:04:05.082Z,2.95
2022-11-20T00:05:05.407Z,2.92
2022-11-20T00:06:05.726Z,2.92
2022-11-20T00:07:06.099Z,2.92
2022-11-20T00:08:06.297Z,2.89
2022-11-20T00:09:06.657Z,2.90
2022-11-20T00:10:06.889Z,2.87
2022-11-20T00:11:10.319Z,2.85
2022-11-20T00:12:08.408Z,2.84
2022-11-20T00:13:07.677Z,2.87
2022-11-20T00:14:08.019Z,2.87
2022-11-20T00:15:08.337Z,2.84
2022-11-20T00:16:08.669Z,2.82
2022-11-20T00:17:08.997Z,2.81
2022-11-20T00:18:09.331Z,2.81
2022-11-20T00:19:09.688Z,2.77
2022-11-20T00:20:09.906Z,2.75
2022-11-20T00:21:10.248Z,2.78
2022-11-20T00:22:10.572Z,2.78
2022-11-20T00:23:11.000Z,2.78
2022-11-20T00:24:11.216Z,2.79
2022-11-20T00:25:11.581Z,2.77
2022-11-20T00:26:11.827Z,2.79
2022-11-20T00:27:12.154Z,2.81
2022-11-20T00:28:12.368Z,2.85
2022-11-20T00:29:12.715Z,2.84
2022-11-20T00:30:15.036Z,2.90
2022-11-20T00:31:13.263Z,2.89
2022-11-20T00:32:13.469Z,2.92
2022-11-20T00:33:13.791Z,2.93
2022-11-20T00:34:14.147Z,2.92
2022-11-20T00:35:14.369Z,2.95
2022-11-20T00:36:14.579Z,2.97
2022-11-20T00:37:14.916Z,2.96
2022-11-20T00:38:15.170Z,2.93
2022-11-20T00:39:15.508Z,2.93
2022-11-20T00:40:15.843Z,2.93
2022-11-20T00:41:16.164Z,2.92
2022-11-20T00:42:16.483Z,2.92
2022-11-20T00:43:16.810Z,2.93
2022-11-20T00:44:17.168Z,2.93
2022-11-20T00:45:17.372Z,2.95
2022-11-20T00:46:17.720Z,2.95
2022-11-20T00:47:18.062Z,2.93
2022-11-20T00:48:18.393Z,2.93
2022-11-20T00:49:19.262Z,2.92
2022-11-20T00:50:18.955Z,2.93
2022-11-20T00:51:19.274Z,2.92
2022-11-20T00:52:19.603Z,2.92
2022-11-20T00:53:19.923Z,2.92
2022-11-20T00:54:20.262Z,2.90
2022-11-20T00:55:20.602Z,2.90
2022-11-20T00:56:20.960Z,2.93
2022-11-20T00:57:21.166Z,2.93
2022-11-20T00:58:21.496Z,2.95
2022-11-20T00:59:22.121Z,2.93
2022-11-20T01:00:22.181Z,2.93
2022-11-20T01:01:22.576Z,2.93
2022-11-20T01:02:22.804Z,2.93
2022-11-20T01:03:27.047Z,2.95
2022-11-20T01:04:23.504Z,2.93
2022-11-20T01:05:23.714Z,2.92
2022-11-20T01:06:24.054Z,2.93
2022-11-20T01:07:24.434Z,2.93
2022-11-20T01:08:24.664Z,2.93
2022-11-20T01:09:25.020Z,2.93
2022-11-20T01:10:25.217Z,2.93
2022-11-20T01:11:25.557Z,2.96
2022-11-20T01:12:25.884Z,2.95
2022-11-20T01:13:26.215Z,2.95
2022-11-20T01:14:26.557Z,2.95
2022-11-20T01:15:26.895Z,2.93
2022-11-20T01:16:27.255Z,2.92
2022-11-20T01:17:27.506Z,2.90
2022-11-20T01:18:27.706Z,2.89
2022-11-20T01:19:28.075Z,2.90
2022-11-20T01:20:28.294Z,2.92
2022-11-20T01:21:28.615Z,2.92
2022-11-20T01:22:28.954Z,2.89
2022-11-20T01:23:29.275Z,2.89
2022-11-20T01:24:29.625Z,2.89
2022-11-20T01:25:29.843Z,2.89
2022-11-20T01:26:30.175Z,2.90
2022-11-20T01:27:30.499Z,2.90
2022-11-20T01:28:30.837Z,2.89
2022-11-20T01:29:31.203Z,2.89
2022-11-20T01:30:31.417Z,2.89
2022-11-20T01:31:31.748Z,2.90
2022-11-20T01:32:32.092Z,2.90
2022-11-20T01:33:32.441Z,2.90
2022-11-20T01:34:32.671Z,2.90
2022-11-20T01:35:33.001Z,2.90
2022-11-20T01:36:33.321Z,2.92
2022-11-20T01:37:33.658Z,2.89
2022-11-20T01:38:33.986Z,2.87
2022-11-20T01:39:34.337Z,2.89
2022-11-20T01:40:34.547Z,2.89
2022-11-20T01:41:34.886Z,2.90
2022-11-20T01:42:35.225Z,2.89
2022-11-20T01:43:35.559Z,2.89
2022-11-20T01:44:35.901Z,2.89
2022-11-20T01:45:36.246Z,2.89
2022-11-20T01:46:36.449Z,2.89
2022-11-20T01:47:36.783Z,2.89
2022-11-20T01:48:37.126Z,2.89
2022-11-20T01:49:37.459Z,2.87
2022-11-20T01:50:37.777Z,2.89
2022-11-20T01:51:38.100Z,2.89
2022-11-20T01:52:38.412Z,2.87
2022-11-20T01:53:38.738Z,2.87
2022-11-20T01:54:39.094Z,2.90
2022-11-20T01:55:39.290Z,2.93
2022-11-20T01:56:39.620Z,2.92
2022-11-20T01:57:39.966Z,2.90
2022-11-20T01:58:40.291Z,2.92
2022-11-20T01:59:40.652Z,2.89
2022-11-20T02:00:40.852Z,2.92
2022-11-20T02:01:41.240Z,2.89
2022-11-20T02:02:41.481Z,2.87
2022-11-20T02:03:41.705Z,2.84
2022-11-20T02:04:42.032Z,2.82
2022-11-20T02:05:42.375Z,2.84
2022-11-20T02:06:42.701Z,2.85
2022-11-20T02:07:43.032Z,2.89
2022-11-20T02:08:43.362Z,2.89
2022-11-20T02:09:43.711Z,2.87
2022-11-20T02:10:43.923Z,2.89
2022-11-20T02:11:44.273Z,2.90
2022-11-20T02:12:44.603Z,2.87
2022-11-20T02:13:44.949Z,2.89
2022-11-20T02:14:45.264Z,2.89
2022-11-20T02:15:45.580Z,2.90
2022-11-20T02:16:45.917Z,2.90
2022-11-20T02:17:46.243Z,2.92
2022-11-20T02:18:46.592Z,2.93
2022-11-20T02:19:46.815Z,2.90
2022-11-20T02:20:47.074Z,2.90
2022-11-20T02:21:47.385Z,2.93
2022-11-20T02:22:47.730Z,2.93
2022-11-20T02:23:48.062Z,2.95
2022-11-20T02:24:48.405Z,2.93
2022-11-20T02:25:48.722Z,2.96
2022-11-20T02:26:49.046Z,2.95
2022-11-20T02:27:49.395Z,2.93
2022-11-20T02:28:49.745Z,2.96
2022-11-20T02:29:49.966Z,2.95
2022-11-20T02:30:50.294Z,2.97
2022-11-20T02:31:50.507Z,2.96
2022-11-20T02:32:50.825Z,2.96
2022-11-20T02:33:51.167Z,2.96
2022-11-20T02:34:51.495Z,2.93
2022-11-20T02:35:51.816Z,2.92
2022-11-20T02:36:52.159Z,2.92
2022-11-20T02:37:52.493Z,2.93
2022-11-20T02:38:52.805Z,2.96
2022-11-20T02:39:53.154Z,2.96
2022-11-20T02:40:55.686Z,2.95
2022-11-20T02:41:53.748Z,2.97
2022-11-20T02:42:54.090Z,2.96
2022-11-20T02:43:54.418Z,2.96
2022-11-20T02:44:54.785Z,2.96
2022-11-20T02:45:54.992Z,2.95
2022-11-20T02:46:55.313Z,2.93
2022-11-20T02:47:55.639Z,2.96
2022-11-20T02:48:55.985Z,2.95
2022-11-20T02:49:56.328Z,2.92
2022-11-20T02:50:56.647Z,2.90
2022-11-20T02:51:56.967Z,2.92
2022-11-20T02:52:57.310Z,2.89
2022-11-20T02:53:57.640Z,2.87
2022-11-20T02:54:57.987Z,2.84
2022-11-20T02:55:58.318Z,2.84
2022-11-20T02:56:58.635Z,2.84
2022-11-20T02:57:59.015Z,2.82
2022-11-20T02:58:59.210Z,2.85
2022-11-20T02:59:59.548Z,2.84
2022-11-20T03:00:59.908Z,2.85
2022-11-20T03:02:00.108Z,2.84
2022-11-20T03:03:00.428Z,2.85
2022-11-20T03:04:00.739Z,2.84
2022-11-20T03:05:01.088Z,2.85
2022-11-20T03:06:01.320Z,2.87
2022-11-20T03:07:01.576Z,2.90
2022-11-20T03:08:01.772Z,2.87
2022-11-20T03:09:02.106Z,2.85
2022-11-20T03:10:02.466Z,2.87
2022-11-20T03:11:02.708Z,2.82
2022-11-20T03:12:02.913Z,2.82
2022-11-20T03:13:03.249Z,2.82
2022-11-20T03:14:03.570Z,2.82
2022-11-20T03:15:03.931Z,2.81
2022-11-20T03:16:04.149Z,2.84
2022-11-20T03:17:04.492Z,2.87
2022-11-20T03:18:04.802Z,2.84
2022-11-20T03:19:05.131Z,2.82
2022-11-20T03:20:05.490Z,2.81
2022-11-20T03:21:05.709Z,2.84
2022-11-20T03:22:06.020Z,2.84
2022-11-20T03:23:06.353Z,2.85
2022-11-20T03:24:06.716Z,2.87
2022-11-20T03:25:06.931Z,2.89
2022-11-20T03:26:07.303Z,2.89
2022-11-20T03:27:07.544Z,2.87
2022-11-20T03:28:07.780Z,2.87
2022-11-20T03:29:08.002Z,2.85
2022-11-20T03:30:08.233Z,2.85
2022-11-20T03:31:08.457Z,2.87
2022-11-20T03:32:08.782Z,2.84
2022-11-20T03:33:09.123Z,2.84
2022-11-20T03:34:09.446Z,2.84
2022-11-20T03:35:09.813Z,2.85
2022-11-20T03:36:10.031Z,2.85
2022-11-20T03:37:10.361Z,2.85
2022-11-20T03:38:10.692Z,2.85
2022-11-20T03:39:11.052Z,2.84
2022-11-20T03:40:11.385Z,2.84
2022-11-20T03:41:11.602Z,2.84
2022-11-20T03:42:11.916Z,2.85
2022-11-20T03:43:12.257Z,2.84
2022-11-20T03:44:12.477Z,2.84
2022-11-20T03:45:12.833Z,2.82
2022-11-20T03:46:13.044Z,2.81
2022-11-20T03:47:13.387Z,2.79
2022-11-20T03:48:13.706Z,2.78
2022-11-20T03:49:14.014Z,2.78
2022-11-20T03:50:14.375Z,2.78
2022-11-20T03:51:14.579Z,2.79
2022-11-20T03:52:14.907Z,2.79
2022-11-20T03:53:15.254Z,2.79
2022-11-20T03:54:15.576Z,2.79
2022-11-20T03:55:15.937Z,2.82
2022-11-20T03:56:16.153Z,2.84
2022-11-20T03:57:16.497Z,2.84
2022-11-20T03:58:16.728Z,2.82
2022-11-20T03:59:16.947Z,2.82
2022-11-20T04:00:17.293Z,2.82
2022-11-20T04:01:17.672Z,2.85
2022-11-20T04:02:17.969Z,2.84
2022-11-20T04:03:18.288Z,2.85
2022-11-20T04:04:18.503Z,2.85
2022-11-20T04:05:18.839Z,2.85
2022-11-20T04:06:19.044Z,2.87
2022-11-20T04:07:19.383Z,2.85
2022-11-20T04:08:19.607Z,2.87
2022-11-20T04:09:20.243Z,2.85
2022-11-20T04:10:20.244Z,2.84
2022-11-20T04:11:20.578Z,2.85
2022-11-20T04:12:20.907Z,2.85
2022-11-20T04:13:21.249Z,2.85
2022-11-20T04:14:21.589Z,2.82
2022-11-20T04:15:21.919Z,2.82
2022-11-20T04:16:22.260Z,2.82
2022-11-20T04:18:44.943Z,2.79
2022-11-20T04:19:45.263Z,2.78
2022-11-20T04:20:45.623Z,2.78
2022-11-20T04:21:45.923Z,2.78
2022-11-20T04:22:46.254Z,2.79
2022-11-20T04:23:46.595Z,2.77
2022-11-20T04:24:46.836Z,2.77
2022-11-20T04:25:47.132Z,2.74
2022-11-20T04:26:47.474Z,2.74
2022-11-20T04:27:47.801Z,2.72
2022-11-20T04:28:48.126Z,2.74
2022-11-20T04:29:48.477Z,2.75
2022-11-20T04:30:48.688Z,2.77
2022-11-20T04:31:49.045Z,2.77
2022-11-20T04:32:49.317Z,2.78
2022-11-20T04:33:49.505Z,2.78
2022-11-20T04:34:49.786Z,2.77
2022-11-20T04:35:49.984Z,2.74
2022-11-20T04:36:50.304Z,2.74
2022-11-20T04:37:50.627Z,2.71
2022-11-20T04:38:56.319Z,2.69
2022-11-20T04:39:52.235Z,2.69
2022-11-20T04:40:51.497Z,2.63
2022-11-20T04:41:51.855Z,2.64
2022-11-20T04:42:52.189Z,2.63
2022-11-20T04:43:52.786Z,2.64
2022-11-20T04:44:52.864Z,2.64
2022-11-20T04:45:53.195Z,2.64
2022-11-20T04:46:53.416Z,2.66
2022-11-20T04:47:53.760Z,2.67
2022-11-20T04:48:54.098Z,2.71
2022-11-20T04:49:54.461Z,2.71
2022-11-20T04:50:54.666Z,2.71
2022-11-20T04:51:56.417Z,2.71
2022-11-20T04:52:55.196Z,2.72
2022-11-20T04:53:55.543Z,2.69
2022-11-20T04:54:55.917Z,2.67
2022-11-20T04:55:56.138Z,2.69
2022-11-20T04:56:56.370Z,2.66
2022-11-20T04:57:56.689Z,2.67
2022-11-20T04:58:57.069Z,2.69
2022-11-20T04:59:57.307Z,2.69
2022-11-20T05:00:57.601Z,2.71
2022-11-20T05:01:58.000Z,2.71
2022-11-20T05:02:58.230Z,2.74
2022-11-20T05:03:58.448Z,2.75
2022-11-20T05:04:58.831Z,2.77
2022-11-20T05:05:59.013Z,2.77
2022-11-20T05:06:59.281Z,2.75
2022-11-20T05:07:59.489Z,2.75
2022-11-20T05:08:59.752Z,2.74
2022-11-20T05:10:00.022Z,2.75
2022-11-20T05:11:00.230Z,2.75
2022-11-20T05:12:00.624Z,2.75
2022-11-20T05:13:00.828Z,2.74
2022-11-20T05:14:01.122Z,2.74
2022-11-20T05:15:01.348Z,2.72
2022-11-20T05:16:01.571Z,2.74
2022-11-20T05:17:01.901Z,2.72
2022-11-20T05:18:02.178Z,2.71
2022-11-20T05:19:02.392Z,2.69
2022-11-20T05:20:02.660Z,2.67
2022-11-20T05:21:02.894Z,2.69
2022-11-20T05:22:03.130Z,2.72
2022-11-20T05:23:03.481Z,2.71
2022-11-20T05:24:03.743Z,2.72
2022-11-20T05:25:03.963Z,2.71
2022-11-20T05:26:04.201Z,2.72
2022-11-20T05:27:04.434Z,2.71
2022-11-20T05:28:04.666Z,2.71
2022-11-20T05:29:04.999Z,2.71
2022-11-20T05:30:05.284Z,2.71
2022-11-20T05:31:05.500Z,2.71
2022-11-20T05:32:05.754Z,2.71
2022-11-20T05:33:06.015Z,2.69
2022-11-20T05:34:06.224Z,2.67
2022-11-20T05:35:06.464Z,2.67
2022-11-20T05:36:06.699Z,2.67
2022-11-20T05:37:06.933Z,2.69
2022-11-20T05:38:07.154Z,2.69
2022-11-20T05:39:07.516Z,2.69
2022-11-20T05:40:07.846Z,2.69
2022-11-20T05:41:08.077Z,2.67
2022-11-20T05:42:08.407Z,2.67
2022-11-20T05:43:08.751Z,2.67
2022-11-20T05:44:09.067Z,2.67
2022-11-20T05:45:09.420Z,2.67
2022-11-20T05:46:09.655Z,2.69
2022-11-20T05:47:09.881Z,2.71
2022-11-20T05:48:10.218Z,2.69
2022-11-20T05:49:10.541Z,2.69
2022-11-20T05:50:10.900Z,2.69
2022-11-20T05:51:11.125Z,2.66
2022-11-20T05:52:11.383Z,2.66
2022-11-20T05:53:11.586Z,2.66
2022-11-20T05:54:11.925Z,2.66
2022-11-20T05:55:12.167Z,2.66
2022-11-20T05:56:12.403Z,2.64
2022-11-20T05:57:12.649Z,2.61
2022-11-20T05:58:12.879Z,2.61
2022-11-20T05:59:13.197Z,2.64
2022-11-20T06:00:13.556Z,2.63
2022-11-20T06:01:13.767Z,2.66
2022-11-20T06:02:14.157Z,2.66
2022-11-20T06:03:14.379Z,2.64
2022-11-20T06:04:14.599Z,2.64
2022-11-20T06:05:14.843Z,2.63
2022-11-20T06:06:15.082Z,2.61
2022-11-20T06:07:15.351Z,2.60
2022-11-20T06:08:15.591Z,2.60
2022-11-20T06:09:15.801Z,2.63
2022-11-20T06:10:16.170Z,2.64
2022-11-20T06:11:16.417Z,2.67
2022-11-20T06:12:16.636Z,2.64
2022-11-20T06:13:16.894Z,2.64
2022-11-20T06:14:17.091Z,2.61
2022-11-20T06:15:17.454Z,2.59
2022-11-20T06:16:17.703Z,2.60
2022-11-20T06:17:17.932Z,2.61
2022-11-20T06:18:18.280Z,2.61
2022-11-20T06:19:18.627Z,2.63
2022-11-20T06:20:18.824Z,2.64
2022-11-20T06:21:19.061Z,2.66
2022-11-20T06:22:19.299Z,2.63
2022-11-20T06:23:19.544Z,2.61
2022-11-20T06:24:19.775Z,2.60
2022-11-20T06:25:20.066Z,2.61
2022-11-20T06:26:20.337Z,2.61
2022-11-20T06:27:20.582Z,2.59
2022-11-20T06:28:20.852Z,2.60
2022-11-20T06:29:21.495Z,2.57
2022-11-20T06:30:21.429Z,2.59
2022-11-20T06:31:21.652Z,2.59
2022-11-20T06:32:21.884Z,2.57
2022-11-20T06:33:22.114Z,2.57
2022-11-20T06:34:22.416Z,2.59
2022-11-20T06:35:22.654Z,2.59
2022-11-20T06:36:22.915Z,2.61
2022-11-20T06:37:23.163Z,2.63
2022-11-20T06:38:23.445Z,2.63
2022-11-20T06:39:23.948Z,2.61
2022-11-20T06:40:24.053Z,2.60
2022-11-20T06:41:24.305Z,2.61
2022-11-20T06:42:24.583Z,2.60
2022-11-20T06:43:24.835Z,2.61
2022-11-20T06:44:25.121Z,2.61
2022-11-20T06:45:25.376Z,2.64
2022-11-20T06:46:25.655Z,2.64
2022-11-20T06:47:25.904Z,2.67
2022-11-20T06:48:26.193Z,2.66
2022-11-20T06:49:26.445Z,2.66
2022-11-20T06:50:26.735Z,2.66
2022-11-20T06:51:27.039Z,2.66
2022-11-20T06:52:27.326Z,2.63
2022-11-20T06:53:27.591Z,2.61
2022-11-20T06:54:27.855Z,2.60
2022-11-20T06:55:28.141Z,2.57
2022-11-20T06:56:28.406Z,2.54
2022-11-20T06:57:28.677Z,2.54
2022-11-20T06:58:28.935Z,2.53
2022-11-20T06:59:29.315Z,2.53
2022-11-20T07:00:29.528Z,2.53
2022-11-20T07:01:29.677Z,2.54
2022-11-20T07:02:29.939Z,2.53
2022-11-20T07:03:30.188Z,2.57
2022-11-20T07:04:30.473Z,2.54
2022-11-20T07:05:30.759Z,2.52
2022-11-20T07:06:31.046Z,2.53
2022-11-20T07:07:31.358Z,2.53
2022-11-20T07:08:31.528Z,2.53
2022-11-20T07:09:31.798Z,2.53
2022-11-20T07:10:32.088Z,2.53
2022-11-20T07:11:32.351Z,2.49
2022-11-20T07:12:32.612Z,2.49
2022-11-20T07:13:32.867Z,2.53
2022-11-20T07:14:33.142Z,2.52
2022-11-20T07:15:33.432Z,2.53
2022-11-20T07:16:33.717Z,2.53
2022-11-20T07:17:33.969Z,2.57
2022-11-20T07:18:34.241Z,2.57
2022-11-20T07:19:34.499Z,2.57
2022-11-20T07:20:34.811Z,2.57
2022-11-20T07:21:35.070Z,2.57
2022-11-20T07:22:35.325Z,2.56
2022-11-20T07:23:35.600Z,2.53
2022-11-20T07:24:35.861Z,2.53
2022-11-20T07:25:36.121Z,2.54
2022-11-20T07:26:36.399Z,2.54
2022-11-20T07:27:36.664Z,2.59
2022-11-20T07:28:36.913Z,2.57
2022-11-20T07:29:37.181Z,2.57
2022-11-20T07:30:37.524Z,2.59
2022-11-20T07:31:37.702Z,2.56
2022-11-20T07:32:37.984Z,2.57
2022-11-20T07:33:38.284Z,2.59
2022-11-20T07:34:38.541Z,2.57
2022-11-20T07:35:38.811Z,2.54
2022-11-20T07:36:39.083Z,2.53
2022-11-20T07:37:39.339Z,2.48
2022-11-20T07:38:39.599Z,2.49
2022-11-20T07:39:39.867Z,2.48
2022-11-20T07:40:40.165Z,2.46
2022-11-20T07:41:40.423Z,2.46
2022-11-20T07:42:40.695Z,2.42
2022-11-20T07:43:41.601Z,2.43
2022-11-20T07:44:41.274Z,2.43
2022-11-20T07:45:41.556Z,2.42
2022-11-20T07:46:41.822Z,2.39
2022-11-20T07:47:42.089Z,2.41
2022-11-20T07:48:42.425Z,2.42
2022-11-20T07:49:42.686Z,2.43
2022-11-20T07:50:42.965Z,2.41
2022-11-20T07:51:43.222Z,2.41
2022-11-20T07:52:43.513Z,2.41
2022-11-20T07:53:43.769Z,2.39
2022-11-20T07:54:44.056Z,2.45
2022-11-20T07:55:44.337Z,2.43
2022-11-20T07:56:44.607Z,2.42
2022-11-20T07:57:44.897Z,2.43
2022-11-20T07:58:45.187Z,2.43
2022-11-20T07:59:45.457Z,2.43
2022-11-20T08:00:45.781Z,2.43
2022-11-20T08:01:46.046Z,2.42
2022-11-20T08:02:46.327Z,2.43
2022-11-20T08:03:46.598Z,2.43
2022-11-20T08:04:46.886Z,2.45
2022-11-20T08:05:47.177Z,2.43
2022-11-20T08:06:47.447Z,2.41
2022-11-20T08:07:47.763Z,2.41
2022-11-20T08:08:47.957Z,2.42
2022-11-20T08:09:48.236Z,2.45
2022-11-20T08:10:48.549Z,2.45
2022-11-20T08:11:48.812Z,2.45
2022-11-20T08:12:49.111Z,2.42
2022-11-20T08:13:49.379Z,2.43
2022-11-20T08:14:49.648Z,2.43
2022-11-20T08:15:49.943Z,2.41
2022-11-20T08:16:50.224Z,2.42
2022-11-20T08:18:08.600Z,2.45
2022-11-20T08:18:51.741Z,2.46
2022-11-20T08:19:51.066Z,2.45
2022-11-20T08:20:51.349Z,2.46
2022-11-20T08:21:51.618Z,2.46
2022-11-20T08:22:51.921Z,2.48
2022-11-20T08:23:52.180Z,2.46
2022-11-20T08:24:52.485Z,2.46
2022-11-20T08:25:52.799Z,2.45
2022-11-20T08:26:53.059Z,2.43
2022-11-20T08:27:57.814Z,2.43
2022-11-20T08:28:54.604Z,2.46
2022-11-20T08:29:53.931Z,2.46
2022-11-20T08:30:54.250Z,2.48
2022-11-20T08:31:54.530Z,2.49
2022-11-20T08:32:54.801Z,2.53
2022-11-20T08:33:55.072Z,2.52
2022-11-20T08:34:55.332Z,2.52
2022-11-20T08:35:55.646Z,2.52
2022-11-20T08:36:55.941Z,2.52
2022-11-20T08:37:56.201Z,2.54
2022-11-20T08:38:56.484Z,2.56
2022-11-20T08:39:56.764Z,2.56
2022-11-20T08:40:57.072Z,2.54
2022-11-20T08:41:57.378Z,2.53
2022-11-20T08:42:57.711Z,2.56
2022-11-20T08:43:57.999Z,2.57
2022-11-20T08:44:58.252Z,2.57
2022-11-20T08:45:58.545Z,2.54
2022-11-20T08:46:58.820Z,2.53
2022-11-20T08:47:59.109Z,2.56
2022-11-20T08:48:59.373Z,2.54
2022-11-20T08:49:59.643Z,2.54
2022-11-20T08:50:59.979Z,2.54
2022-11-20T08:52:00.266Z,2.53
2022-11-20T08:53:00.608Z,2.52
2022-11-20T08:54:00.853Z,2.53
2022-11-20T08:55:01.124Z,2.49
2022-11-20T08:56:01.423Z,2.46
2022-11-20T08:57:01.695Z,2.48
2022-11-20T08:58:01.964Z,2.48
2022-11-20T09:00:06.477Z,2.48
2022-11-20T09:01:02.893Z,2.48
2022-11-20T09:02:03.065Z,2.48
2022-11-20T09:03:03.365Z,2.48
2022-11-20T09:04:03.683Z,2.52
2022-11-20T09:05:03.967Z,2.52
2022-11-20T09:06:04.318Z,2.53
2022-11-20T09:07:04.597Z,2.54
2022-11-20T09:08:04.817Z,2.54
2022-11-20T09:09:06.856Z,2.53
2022-11-20T09:11:06.566Z,2.54
2022-11-20T09:12:05.787Z,2.52
2022-11-20T09:13:06.078Z,2.49
2022-11-20T09:14:06.403Z,2.52
2022-11-20T09:15:06.677Z,2.48
2022-11-20T09:16:06.999Z,2.48
2022-11-20T09:17:07.338Z,2.46
2022-11-20T09:18:07.650Z,2.48
2022-11-20T09:19:33.987Z,2.52
2022-11-20T09:20:09.178Z,2.48
2022-11-20T09:21:08.573Z,2.49
2022-11-20T09:22:08.759Z,2.53
2022-11-20T09:23:09.049Z,2.52
2022-11-20T09:24:09.358Z,2.53
2022-11-20T09:25:09.670Z,2.54
2022-11-20T09:26:09.956Z,2.54
2022-11-20T09:27:10.241Z,2.56
2022-11-20T09:28:10.520Z,2.57
2022-11-20T09:29:10.838Z,2.59
2022-11-20T09:30:11.118Z,2.59
2022-11-20T09:31:11.411Z,2.60
2022-11-20T09:32:11.712Z,2.63
2022-11-20T09:33:11.989Z,2.66
2022-11-20T09:34:12.270Z,2.67
2022-11-20T09:35:12.539Z,2.69
2022-11-20T09:36:12.840Z,2.69
2022-11-20T09:37:13.116Z,2.67
2022-11-20T09:38:13.392Z,2.66
2022-11-20T09:39:13.670Z,2.66
2022-11-20T09:40:13.940Z,2.69
2022-11-20T09:41:14.232Z,2.71
2022-11-20T09:42:14.510Z,2.71
2022-11-20T09:43:14.774Z,2.69
2022-11-20T09:44:15.048Z,2.69
2022-11-20T09:45:15.322Z,2.67
2022-11-20T09:46:15.621Z,2.69
2022-11-20T09:47:15.901Z,2.69
2022-11-20T09:48:16.194Z,2.71
2022-11-20T09:49:16.480Z,2.71
2022-11-20T09:50:16.762Z,2.74
2022-11-20T09:51:17.039Z,2.75
2022-11-20T09:52:17.355Z,2.77
2022-11-20T09:53:17.610Z,2.78
2022-11-20T09:54:17.884Z,2.78
2022-11-20T09:55:18.166Z,2.78
2022-11-20T09:56:22.462Z,2.78
2022-11-20T09:57:18.761Z,2.81
2022-11-20T09:58:19.044Z,2.79
2022-11-20T09:59:19.803Z,2.82
2022-11-20T10:00:19.612Z,2.82
2022-11-20T10:01:19.950Z,2.84
2022-11-20T10:02:20.230Z,2.85
2022-11-20T10:03:20.504Z,2.89
2022-11-20T10:04:20.733Z,2.87
2022-11-20T10:05:21.052Z,2.90
2022-11-20T10:06:21.354Z,2.93
2022-11-20T10:07:37.013Z,2.97
2022-11-20T10:08:22.916Z,2.95
2022-11-20T10:09:22.379Z,2.92
2022-11-20T10:10:22.465Z,2.92
2022-11-20T10:11:22.756Z,2.90
2022-11-20T10:12:23.015Z,2.93
2022-11-20T10:13:23.278Z,2.95
2022-11-20T10:14:23.545Z,2.95
2022-11-20T10:15:23.948Z,2.95
2022-11-20T10:16:24.125Z,2.97
2022-11-20T10:17:24.387Z,2.96
2022-11-20T10:18:24.655Z,2.97
2022-11-20T10:19:24.941Z,2.96
2022-11-20T10:20:25.197Z,2.97
2022-11-20T10:21:25.474Z,2.95
2022-11-20T10:22:25.748Z,2.93
2022-11-20T10:23:26.285Z,2.93
2022-11-20T10:24:26.264Z,2.95
2022-11-20T10:25:26.538Z,2.96
2022-11-20T10:26:26.917Z,2.96
2022-11-20T10:27:27.054Z,3.02
2022-11-20T10:28:27.318Z,3.05
2022-11-20T10:29:27.579Z,3.06
2022-11-20T10:30:27.939Z,3.08
2022-11-20T10:31:28.105Z,3.08
2022-11-20T10:32:28.378Z,3.06
2022-11-20T10:33:38.793Z,3.03
2022-11-20T10:34:29.907Z,3.05
2022-11-20T10:35:29.110Z,3.03
2022-11-20T10:36:29.402Z,3.05
2022-11-20T10:37:29.657Z,3.05
2022-11-20T10:38:30.267Z,3.03
2022-11-20T10:39:30.208Z,3.02
2022-11-20T10:40:30.530Z,2.99
2022-11-20T10:41:33.107Z,2.99
2022-11-20T10:42:32.049Z,2.96
2022-11-20T10:43:31.380Z,2.97
2022-11-20T10:44:31.643Z,2.97
2022-11-20T10:45:31.955Z,2.99
2022-11-20T10:46:32.220Z,3.00
2022-11-20T10:47:32.490Z,3.02
2022-11-20T10:48:32.785Z,3.05
2022-11-20T10:49:33.049Z,3.08
2022-11-20T10:50:33.320Z,3.05
2022-11-20T10:51:33.605Z,3.00
2022-11-20T10:52:33.880Z,2.99
2022-11-20T10:53:34.154Z,2.96
2022-11-20T10:54:34.511Z,2.97
2022-11-20T10:55:34.723Z,2.96
2022-11-20T10:56:35.006Z,2.97
2022-11-20T10:57:35.271Z,2.99
2022-11-20T10:58:35.531Z,2.99
2022-11-20T10:59:35.799Z,3.02
2022-11-20T11:00:36.246Z,3.02
2022-11-20T11:01:36.477Z,3.00
2022-11-20T11:02:36.735Z,2.97
2022-11-20T11:03:37.010Z,2.97
2022-11-20T11:04:37.272Z,2.97
2022-11-20T11:05:37.566Z,2.97
2022-11-20T11:06:37.932Z,2.96
2022-11-20T11:07:38.251Z,2.93
2022-11-20T11:08:38.526Z,2.90
2022-11-20T11:09:38.800Z,2.85
2022-11-20T11:10:39.075Z,2.82
2022-11-20T11:11:39.374Z,2.82
2022-11-20T11:12:39.640Z,2.82
2022-11-20T11:13:39.903Z,2.81
2022-11-20T11:14:40.201Z,2.82
2022-11-20T11:15:40.475Z,2.82
2022-11-20T11:16:40.773Z,2.84
2022-11-20T11:17:41.054Z,2.85
2022-11-20T11:18:41.335Z,2.84
2022-11-20T11:19:41.623Z,2.81
2022-11-20T11:20:41.906Z,2.81
2022-11-20T11:21:42.195Z,2.82
2022-11-20T11:22:42.488Z,2.84
2022-11-20T11:23:42.755Z,2.84
2022-11-20T11:24:43.504Z,2.87
2022-11-20T11:25:43.286Z,2.90
2022-11-20T11:26:43.596Z,2.93
2022-11-20T11:27:43.877Z,2.90
2022-11-20T11:28:44.153Z,2.90
2022-11-20T11:29:44.470Z,2.93
2022-11-20T11:30:44.745Z,2.95
2022-11-20T11:31:45.044Z,2.96
2022-11-20T11:32:45.376Z,3.00
2022-11-20T11:33:45.648Z,3.02
2022-11-20T11:34:45.926Z,3.05
2022-11-20T11:35:50.006Z,3.08
2022-11-20T11:36:47.642Z,3.11
2022-11-20T11:37:46.826Z,3.14
2022-11-20T11:38:47.098Z,3.15
2022-11-20T11:39:49.356Z,3.14
2022-11-20T11:40:48.628Z,3.10
2022-11-20T11:41:47.882Z,3.05
2022-11-20T11:42:48.167Z,3.03
2022-11-20T11:43:48.457Z,3.00
2022-11-20T11:44:48.749Z,2.97
2022-11-20T11:45:49.037Z,2.93
2022-11-20T11:46:49.329Z,2.92
2022-11-20T11:47:49.597Z,2.89
2022-11-20T11:48:50.852Z,2.87
2022-11-20T11:49:50.219Z,2.84
2022-11-20T11:50:50.521Z,2.84
2022-11-20T11:51:50.826Z,2.87
2022-11-20T11:52:51.121Z,2.85
2022-11-20T11:53:51.407Z,2.89
2022-11-20T11:54:51.700Z,2.90
2022-11-20T11:55:51.991Z,2.90
2022-11-20T11:56:52.309Z,2.92
2022-11-20T11:57:52.629Z,2.93
2022-11-20T11:58:52.911Z,2.97
2022-11-20T11:59:53.172Z,2.99
2022-11-20T12:00:53.439Z,3.02
2022-11-20T12:01:53.804Z,3.02
2022-11-20T12:02:53.986Z,3.02
2022-11-20T12:03:54.270Z,3.03
2022-11-20T12:04:55.329Z,3.02
2022-11-20T12:05:54.981Z,3.05
2022-11-20T12:06:55.121Z,3.06
2022-11-20T12:07:55.466Z,3.08
2022-11-20T12:08:55.753Z,3.10
2022-11-20T12:09:56.046Z,3.10
2022-11-20T12:10:56.320Z,3.13
2022-11-20T12:11:56.646Z,3.10
2022-11-20T12:12:56.933Z,3.10
2022-11-20T12:13:57.210Z,3.06
2022-11-20T12:14:57.490Z,3.05
2022-11-20T12:15:57.775Z,3.03
2022-11-20T12:16:58.044Z,3.06
2022-11-20T12:17:58.335Z,3.06
2022-11-20T12:18:58.583Z,3.08
2022-11-20T12:19:58.879Z,3.08
2022-11-20T12:20:59.163Z,3.08
2022-11-20T12:22:01.981Z,3.11
2022-11-20T12:22:59.760Z,3.11
2022-11-20T12:23:59.947Z,3.13
2022-11-20T12:25:00.236Z,3.11
2022-11-20T12:26:00.514Z,3.13
2022-11-20T12:27:00.806Z,3.17
2022-11-20T12:28:01.085Z,3.17
2022-11-20T12:29:01.394Z,3.15
2022-11-20T12:30:01.706Z,3.15
2022-11-20T12:31:02.005Z,3.15
2022-11-20T12:32:02.316Z,3.17
2022-11-20T12:33:02.587Z,3.18
2022-11-20T12:34:03.625Z,3.21
2022-11-20T12:35:06.125Z,3.23
2022-11-20T12:36:04.414Z,3.28
2022-11-20T12:37:03.698Z,3.29
2022-11-20T12:38:03.868Z,3.31
2022-11-20T12:39:04.185Z,3.33
2022-11-20T12:40:04.476Z,3.29
2022-11-20T12:41:04.843Z,3.28
2022-11-20T12:42:05.040Z,3.24
2022-11-20T12:43:05.337Z,3.21
2022-11-20T12:44:05.745Z,3.18
2022-11-20T12:45:05.878Z,3.18
2022-11-20T12:46:06.186Z,3.17
2022-11-20T12:47:06.527Z,3.17
2022-11-20T12:48:06.818Z,3.18
2022-11-20T12:49:07.106Z,3.18
2022-11-20T12:50:28.959Z,3.17
2022-11-20T12:51:15.597Z,3.14
2022-11-20T12:52:13.728Z,3.14
2022-11-20T12:53:09.706Z,3.11
2022-11-20T12:54:21.127Z,3.15
2022-11-20T12:55:08.816Z,3.15
2022-11-20T12:56:09.728Z,3.14
2022-11-20T12:57:09.349Z,3.15
2022-11-20T12:58:09.656Z,3.13
2022-11-20T12:59:10.640Z,3.13
2022-11-20T13:00:10.119Z,3.10
2022-11-20T13:01:10.404Z,3.08
2022-11-20T13:02:10.698Z,3.06
2022-11-20T13:03:10.958Z,3.06
2022-11-20T13:04:11.950Z,3.05
2022-11-20T13:05:11.503Z,3.03
2022-11-20T13:06:11.811Z,3.05
2022-11-20T13:07:12.882Z,3.02
2022-11-20T13:08:12.341Z,3.02
2022-11-20T13:09:13.361Z,3.03
2022-11-20T13:10:13.647Z,3.05
2022-11-20T13:11:13.184Z,3.06
2022-11-20T13:12:13.468Z,3.08
2022-11-20T13:13:13.780Z,3.10
2022-11-20T13:14:14.061Z,3.10
2022-11-20T13:15:14.419Z,3.11
2022-11-20T13:16:14.835Z,3.13
2022-11-20T13:17:14.824Z,3.11
2022-11-20T13:18:15.153Z,3.11
2022-11-20T13:19:15.411Z,3.10
2022-11-20T13:20:15.690Z,3.06
2022-11-20T13:21:17.411Z,3.08
2022-11-20T13:22:16.249Z,3.06
2022-11-20T13:23:16.521Z,3.10
2022-11-20T13:24:16.803Z,3.10
2022-11-20T13:25:17.079Z,3.13